createdAt,value
2018-03-22T00:03:56.537Z,10.57
2018-03-22T00:08:59.011Z,11.37
2018-03-22T00:14:01.535Z,11.63
2018-03-22T00:19:04.049Z,9.10
2018-03-22T00:24:06.519Z,10.87
2018-03-22T00:29:09.000Z,12.70
2018-03-22T00:34:11.527Z,12.63
2018-03-22T00:39:14.151Z,10.93
2018-03-22T00:44:16.633Z,12.07
2018-03-22T00:49:19.184Z,11.77
2018-03-22T00:54:21.691Z,11.17
2018-03-22T00:59:24.192Z,15.27
2018-03-22T01:04:26.648Z,15.53
2018-03-22T01:09:29.117Z,12.30
2018-03-22T01:14:31.589Z,12.57
2018-03-22T01:19:34.066Z,12.23
2018-03-22T01:24:37.422Z,12.10
2018-03-22T01:29:40.035Z,15.70
2018-03-22T01:34:42.674Z,14.33
2018-03-22T01:39:46.094Z,13.10
2018-03-22T01:44:48.585Z,11.73
2018-03-22T01:49:51.068Z,13.47
2018-03-22T01:54:53.555Z,13.70
2018-03-22T01:59:56.006Z,14.97
2018-03-22T02:04:58.476Z,15.37
2018-03-22T02:10:00.990Z,16.27
2018-03-22T02:15:03.436Z,17.07
2018-03-22T02:20:05.920Z,16.10
2018-03-22T02:25:08.393Z,18.00
2018-03-22T02:30:10.860Z,16.33
2018-03-22T02:35:13.338Z,13.93
2018-03-22T02:40:16.215Z,20.53
2018-03-22T02:45:18.792Z,16.17
2018-03-22T02:50:21.308Z,15.40
2018-03-22T02:55:23.793Z,14.67
2018-03-22T03:00:26.324Z,15.40
2018-03-22T03:05:28.751Z,14.23
2018-03-22T03:10:31.193Z,17.20
2018-03-22T03:15:33.655Z,15.57
2018-03-22T03:20:36.127Z,18.73
2018-03-22T03:25:38.602Z,16.97
2018-03-22T03:30:41.056Z,13.93
2018-03-22T03:35:43.620Z,15.63
2018-03-22T03:40:46.152Z,21.00
2018-03-22T03:45:48.921Z,16.60
2018-03-22T03:50:51.558Z,21.10
2018-03-22T03:55:54.049Z,17.23
2018-03-22T04:00:56.512Z,19.67
2018-03-22T04:05:58.980Z,18.13
2018-03-22T04:11:01.534Z,19.63
2018-03-22T04:16:04.016Z,19.93
2018-03-22T04:21:06.488Z,19.03
2018-03-22T04:26:08.941Z,15.67
2018-03-22T04:31:11.422Z,18.50
2018-03-22T04:36:14.194Z,18.27
2018-03-22T04:41:16.752Z,19.90
2018-03-22T04:46:19.243Z,20.53
2018-03-22T04:51:21.744Z,18.47
2018-03-22T04:56:24.219Z,18.43
2018-03-22T05:01:26.718Z,19.80
2018-03-22T05:06:29.195Z,21.10
2018-03-22T05:11:31.679Z,23.10
2018-03-22T05:16:34.167Z,23.27
2018-03-22T05:21:36.685Z,25.50
2018-03-22T05:26:39.154Z,25.00
2018-03-22T05:31:41.680Z,22.90
2018-03-22T05:36:44.173Z,26.13
2018-03-22T05:41:46.781Z,25.10
2018-03-22T05:46:49.298Z,27.13
2018-03-22T05:51:51.952Z,30.27
2018-03-22T05:56:54.428Z,25.87
2018-03-22T06:01:56.914Z,26.63
2018-03-22T06:06:59.408Z,27.33
2018-03-22T06:12:01.967Z,26.67
2018-03-22T06:17:04.916Z,27.20
2018-03-22T06:22:07.514Z,25.43
2018-03-22T06:27:09.998Z,26.37
2018-03-22T06:32:12.497Z,29.47
2018-03-22T06:37:15.001Z,26.10
2018-03-22T06:42:17.516Z,27.87
2018-03-22T06:47:20.064Z,25.07
2018-03-22T06:52:22.601Z,25.10
2018-03-22T06:57:25.277Z,20.53
2018-03-22T07:02:27.769Z,18.77
2018-03-22T07:07:30.243Z,23.90
2018-03-22T07:12:32.715Z,25.03
2018-03-22T07:17:35.235Z,23.77
2018-03-22T07:22:37.725Z,25.83
2018-03-22T07:27:40.196Z,27.07
2018-03-22T07:32:42.655Z,31.10
2018-03-22T07:37:45.952Z,27.53
2018-03-22T07:42:53.985Z,26.67
2018-03-22T07:47:56.451Z,21.70
2018-03-22T07:52:58.915Z,21.60
2018-03-22T07:58:01.499Z,20.20
2018-03-22T08:03:03.977Z,20.27
2018-03-22T08:08:06.488Z,23.33
2018-03-22T08:13:08.995Z,19.20
2018-03-22T08:18:11.468Z,24.97
2018-03-22T08:23:13.956Z,23.60
2018-03-22T08:28:16.516Z,35.10
2018-03-22T08:33:19.097Z,29.80
2018-03-22T08:38:21.650Z,33.70
2018-03-22T08:43:24.182Z,35.87
2018-03-22T08:48:26.664Z,38.33
2018-03-22T08:53:29.147Z,37.13
2018-03-22T08:58:31.646Z,35.50
2018-03-22T09:03:34.151Z,34.90
2018-03-22T09:08:36.846Z,39.27
2018-03-22T09:13:39.783Z,34.30
2018-03-22T09:18:42.324Z,39.77
2018-03-22T09:23:44.831Z,40.33
2018-03-22T09:28:47.413Z,36.07
2018-03-22T09:33:50.063Z,48.53
2018-03-22T09:38:52.544Z,50.87
2018-03-22T09:43:55.039Z,61.97
2018-03-22T09:48:57.520Z,54.90
2018-03-22T09:53:59.975Z,57.90
2018-03-22T09:59:02.446Z,53.57
2018-03-22T10:04:04.937Z,56.37
2018-03-22T10:09:08.256Z,59.90
2018-03-22T10:14:10.753Z,59.13
2018-03-22T10:19:13.252Z,59.67
2018-03-22T10:24:16.395Z,55.60
2018-03-22T10:29:18.967Z,53.90
2018-03-22T10:34:21.439Z,57.20
2018-03-22T10:39:24.719Z,61.00
2018-03-22T10:44:27.190Z,60.07
2018-03-22T10:49:29.645Z,56.17
2018-03-22T10:54:32.088Z,60.27
2018-03-22T10:59:34.717Z,56.57
2018-03-22T11:04:37.214Z,65.73
2018-03-22T11:09:39.921Z,59.90
2018-03-22T11:14:42.400Z,56.67
2018-03-22T11:19:44.941Z,53.60
2018-03-22T11:24:47.536Z,55.30
2018-03-22T11:29:50.237Z,57.10
2018-03-22T11:34:52.749Z,54.97
2018-03-22T11:39:55.214Z,55.60
2018-03-22T11:44:57.690Z,55.00
2018-03-22T11:50:00.157Z,52.57
2018-03-22T11:55:02.638Z,58.20
2018-03-22T12:00:05.524Z,56.00
2018-03-22T12:05:08.445Z,50.57
2018-03-22T12:10:11.421Z,47.90
2018-03-22T12:15:16.954Z,49.80
2018-03-22T12:20:22.272Z,52.20
2018-03-22T12:25:24.792Z,48.57
2018-03-22T12:30:27.260Z,48.73
2018-03-22T12:35:29.977Z,48.47
2018-03-22T12:40:32.467Z,48.37
2018-03-22T12:45:34.958Z,44.30
2018-03-22T12:50:37.641Z,45.57
2018-03-22T12:55:40.346Z,47.60
2018-03-22T13:00:44.567Z,41.77
2018-03-22T13:05:47.090Z,41.33
2018-03-22T13:10:49.587Z,41.87
2018-03-22T13:15:52.684Z,41.17
2018-03-22T13:20:55.207Z,41.20
2018-03-22T13:25:57.683Z,42.30
2018-03-22T13:31:00.146Z,37.27
2018-03-22T13:36:02.624Z,36.43
2018-03-22T13:41:05.175Z,42.27
2018-03-22T13:46:07.690Z,39.90
2018-03-22T13:51:10.161Z,38.63
2018-03-22T13:56:12.633Z,40.77
2018-03-22T14:01:15.492Z,37.13
2018-03-22T14:06:18.059Z,40.27
2018-03-22T14:11:20.550Z,41.00
2018-03-22T14:16:23.805Z,38.70
2018-03-22T14:21:26.515Z,40.07
2018-03-22T14:26:28.996Z,36.97
2018-03-22T14:31:36.423Z,37.37
2018-03-22T14:36:39.141Z,32.83
2018-03-22T14:41:41.763Z,37.63
2018-03-22T14:46:45.025Z,36.47
2018-03-22T14:51:47.690Z,41.03
2018-03-22T14:56:50.219Z,39.00
2018-03-22T15:01:54.776Z,33.97
2018-03-22T15:06:58.502Z,32.40
2018-03-22T15:12:03.794Z,35.63
2018-03-22T15:17:09.310Z,35.77
2018-03-22T15:22:12.108Z,38.40
2018-03-22T15:27:14.904Z,39.33
2018-03-22T15:32:17.484Z,38.47
2018-03-22T15:37:20.003Z,35.67
2018-03-22T15:42:22.978Z,35.37
2018-03-22T15:47:25.445Z,33.73
2018-03-22T15:52:28.075Z,37.47
2018-03-22T15:57:31.118Z,35.70
2018-03-22T16:02:33.657Z,39.83
2018-03-22T16:07:36.171Z,39.50
2018-03-22T16:12:40.975Z,37.60
2018-03-22T16:17:47.619Z,41.47
2018-03-22T16:22:52.715Z,41.70
2018-03-22T16:27:56.998Z,44.30
2018-03-22T16:33:01.961Z,41.30
2018-03-22T16:38:07.271Z,42.70
2018-03-22T16:43:10.807Z,43.00
2018-03-22T16:48:15.371Z,40.50
2018-03-22T16:53:19.280Z,40.00
2018-03-22T16:58:24.307Z,39.33
2018-03-22T17:03:28.375Z,46.23
2018-03-22T17:08:33.162Z,44.00
2018-03-22T17:13:38.812Z,45.17
2018-03-22T17:18:41.946Z,49.03
2018-03-22T17:23:44.811Z,50.33
2018-03-22T17:28:47.344Z,49.73
2018-03-22T17:33:49.910Z,49.90
2018-03-22T17:38:52.432Z,57.23
2018-03-22T17:43:54.941Z,60.30
2018-03-22T17:48:57.466Z,52.37
2018-03-22T17:53:59.915Z,50.77
2018-03-22T17:59:02.435Z,52.77
2018-03-22T18:04:04.911Z,44.47
2018-03-22T18:09:08.496Z,47.97
2018-03-22T18:14:11.344Z,50.93
2018-03-22T18:19:14.117Z,45.60
2018-03-22T18:24:17.172Z,47.30
2018-03-22T18:29:20.162Z,52.40
2018-03-22T18:34:22.644Z,51.03
2018-03-22T18:39:25.133Z,45.53
2018-03-22T18:44:27.653Z,43.40
2018-03-22T18:49:30.134Z,41.37
2018-03-22T18:54:32.700Z,42.30
2018-03-22T18:59:39.148Z,38.20
2018-03-22T19:04:41.897Z,45.27
2018-03-22T19:09:45.322Z,42.67
2018-03-22T19:14:48.948Z,48.60
2018-03-22T19:19:51.728Z,43.50
2018-03-22T19:24:54.217Z,42.33
2018-03-22T19:29:56.735Z,42.00
2018-03-22T19:34:59.207Z,45.60
2018-03-22T19:40:01.716Z,46.40
2018-03-22T19:45:04.219Z,45.50
2018-03-22T19:50:06.717Z,54.73
2018-03-22T19:55:09.458Z,47.73
2018-03-22T20:00:11.949Z,52.70
2018-03-22T20:05:14.471Z,41.57
2018-03-22T20:10:19.023Z,44.50
2018-03-22T20:15:27.660Z,41.27
2018-03-22T20:20:35.205Z,39.90
2018-03-22T20:25:43.309Z,40.30
2018-03-22T20:30:52.322Z,42.70
2018-03-22T20:35:58.969Z,41.60
2018-03-22T20:41:03.607Z,42.40
2018-03-22T20:46:07.926Z,42.60
2018-03-22T20:51:12.762Z,40.13
2018-03-22T20:56:17.070Z,42.07
2018-03-22T21:01:22.680Z,42.90
2018-03-22T21:06:28.785Z,43.83
2018-03-22T21:11:33.098Z,51.13
2018-03-22T21:16:37.024Z,49.73
2018-03-22T21:21:45.165Z,44.17
2018-03-22T21:26:50.025Z,47.00
2018-03-22T21:31:52.924Z,49.23
2018-03-22T21:36:55.404Z,48.93
2018-03-22T21:42:06.460Z,49.53
2018-03-22T21:47:20.805Z,48.30
2018-03-22T21:52:35.365Z,52.70
2018-03-22T21:57:37.856Z,52.60
2018-03-22T22:02:40.372Z,48.53
2018-03-22T22:07:42.866Z,52.80
2018-03-22T22:12:45.419Z,50.77
2018-03-22T22:17:48.018Z,50.50
2018-03-22T22:22:50.547Z,51.37
2018-03-22T22:27:53.070Z,52.20
2018-03-22T22:32:55.565Z,47.27
2018-03-22T22:37:58.025Z,52.87
2018-03-22T22:43:01.120Z,56.37
2018-03-22T22:48:03.605Z,51.77
2018-03-22T22:53:06.118Z,53.20
2018-03-22T22:58:08.592Z,53.00
2018-03-22T23:03:11.098Z,60.20
2018-03-22T23:08:13.652Z,52.50
2018-03-22T23:13:16.161Z,61.57
2018-03-22T23:18:18.663Z,58.10
2018-03-22T23:23:21.174Z,48.43
2018-03-22T23:28:23.688Z,51.97
2018-03-22T23:33:26.138Z,50.93
2018-03-22T23:38:29.029Z,45.50
2018-03-22T23:43:31.583Z,42.50
2018-03-22T23:48:34.040Z,46.07
2018-03-22T23:53:37.498Z,44.43
2018-03-22T23:58:39.962Z,40.60
